createdAt,value
2022-10-11T00:01:08.222Z,5.10
2022-10-11T00:03:38.478Z,5.00
2022-10-11T00:06:08.719Z,5.70
2022-10-11T00:08:37.212Z,5.80
2022-10-11T00:11:07.303Z,5.60
2022-10-11T00:13:35.703Z,5.10
2022-10-11T00:16:09.561Z,5.70
2022-10-11T00:18:46.735Z,5.50
2022-10-11T00:21:16.032Z,5.50
2022-10-11T00:23:44.471Z,5.70
2022-10-11T00:26:12.903Z,5.60
2022-10-11T00:28:41.999Z,5.20
2022-10-11T00:31:12.837Z,5.20
2022-10-11T00:33:41.520Z,5.00
2022-10-11T00:36:13.857Z,5.60
2022-10-11T00:38:42.682Z,4.90
2022-10-11T00:41:11.976Z,6.10
2022-10-11T00:43:40.533Z,4.70
2022-10-11T00:46:31.817Z,5.10
2022-10-11T00:49:07.138Z,6.00
2022-10-11T00:51:43.281Z,5.50
2022-10-11T00:54:16.276Z,4.90
2022-10-11T00:56:49.673Z,4.50
2022-10-11T00:59:22.253Z,4.80
2022-10-11T01:01:54.165Z,4.80
2022-10-11T01:04:24.396Z,5.80
2022-10-11T01:06:54.657Z,5.60
2022-10-11T01:09:24.245Z,4.90
2022-10-11T01:11:56.177Z,5.50
2022-10-11T01:14:40.819Z,5.60
2022-10-11T01:17:18.243Z,6.10
2022-10-11T01:20:18.317Z,5.60
2022-10-11T01:23:24.573Z,5.90
2022-10-11T01:26:10.362Z,5.50
2022-10-11T01:28:49.073Z,6.50
2022-10-11T01:31:25.030Z,5.60
2022-10-11T01:33:59.560Z,5.70
2022-10-11T01:36:34.212Z,5.40
2022-10-11T01:39:09.603Z,5.60
2022-10-11T01:41:42.106Z,5.50
2022-10-11T01:44:13.720Z,5.60
2022-10-11T01:46:42.859Z,6.10
2022-10-11T01:49:11.218Z,6.10
2022-10-11T01:51:47.159Z,5.20
2022-10-11T01:55:08.144Z,5.70
2022-10-11T01:58:01.572Z,5.50
2022-10-11T02:00:39.405Z,6.30
2022-10-11T02:03:19.075Z,5.80
2022-10-11T02:05:51.750Z,6.40
2022-10-11T02:08:33.697Z,6.80
2022-10-11T02:11:07.538Z,6.20
2022-10-11T02:13:41.239Z,5.80
2022-10-11T02:16:13.685Z,6.30
2022-10-11T02:18:45.701Z,6.40
2022-10-11T02:21:18.918Z,6.80
2022-10-11T02:23:53.161Z,6.50
2022-10-11T02:26:24.529Z,6.00
2022-10-11T02:29:00.561Z,6.10
2022-10-11T02:31:32.968Z,5.80
2022-10-11T02:34:09.841Z,6.00
2022-10-11T02:36:47.408Z,6.50
2022-10-11T02:39:21.749Z,6.20
2022-10-11T02:41:56.088Z,6.70
2022-10-11T02:44:34.045Z,6.40
2022-10-11T02:47:03.812Z,6.90
2022-10-11T02:49:33.189Z,5.90
2022-10-11T02:52:04.005Z,6.40
2022-10-11T02:54:32.869Z,6.40
2022-10-11T02:57:01.073Z,6.50
2022-10-11T02:59:29.503Z,6.00
2022-10-11T03:01:58.239Z,6.20
2022-10-11T03:04:28.866Z,6.00
2022-10-11T03:06:57.491Z,5.80
2022-10-11T03:09:26.687Z,6.60
2022-10-11T03:11:54.907Z,5.80
2022-10-11T03:14:24.357Z,6.20
2022-10-11T03:16:55.790Z,6.00
2022-10-11T03:19:27.568Z,6.70
2022-10-11T03:21:55.719Z,5.50
2022-10-11T03:24:24.501Z,7.00
2022-10-11T03:26:53.406Z,6.00
2022-10-11T03:29:22.007Z,6.40
2022-10-11T03:31:51.080Z,4.80
2022-10-11T03:34:20.376Z,5.90
2022-10-11T03:36:48.621Z,6.10
2022-10-11T03:39:16.857Z,5.80
2022-10-11T03:41:45.032Z,6.40
2022-10-11T03:44:13.224Z,6.50
2022-10-11T03:46:41.561Z,5.70
2022-10-11T03:49:11.211Z,6.20
2022-10-11T03:51:39.972Z,6.50
2022-10-11T03:54:08.946Z,6.50
2022-10-11T03:56:37.477Z,5.70
2022-10-11T03:59:06.238Z,6.10
2022-10-11T04:01:38.377Z,6.70
2022-10-11T04:04:07.113Z,6.50
2022-10-11T04:06:35.359Z,6.00
2022-10-11T04:09:04.453Z,6.20
2022-10-11T04:11:33.596Z,6.30
2022-10-11T04:14:02.847Z,8.00
2022-10-11T04:16:34.133Z,7.20
2022-10-11T04:19:03.460Z,6.00
2022-10-11T04:21:32.107Z,6.30
2022-10-11T04:24:01.160Z,6.10
2022-10-11T04:26:30.895Z,6.70
2022-10-11T04:28:59.655Z,6.10
2022-10-11T04:31:31.748Z,6.70
2022-10-11T04:34:00.978Z,6.10
2022-10-11T04:36:32.389Z,5.70
2022-10-11T04:39:02.420Z,5.90
2022-10-11T04:41:32.882Z,6.00
2022-10-11T04:44:01.837Z,6.10
2022-10-11T04:46:33.272Z,6.10
2022-10-11T04:49:03.044Z,6.50
2022-10-11T04:51:33.395Z,6.30
2022-10-11T04:54:02.211Z,6.00
2022-10-11T04:56:33.058Z,5.90
2022-10-11T04:59:01.406Z,5.90
2022-10-11T05:01:30.462Z,6.50
2022-10-11T05:03:59.152Z,6.40
2022-10-11T05:06:28.646Z,6.60
2022-10-11T05:08:57.383Z,6.60
2022-10-11T05:11:27.022Z,6.20
2022-10-11T05:13:57.644Z,6.90
2022-10-11T05:16:27.312Z,6.70
2022-10-11T05:18:55.629Z,6.30
2022-10-11T05:21:26.683Z,6.10
2022-10-11T05:23:56.262Z,6.30
2022-10-11T05:26:27.117Z,6.50
2022-10-11T05:28:55.836Z,6.80
2022-10-11T05:31:26.546Z,7.30
2022-10-11T05:33:54.959Z,7.00
2022-10-11T05:36:23.306Z,8.60
2022-10-11T05:38:52.284Z,7.60
2022-10-11T05:41:20.699Z,8.00
2022-10-11T05:43:49.380Z,9.10
2022-10-11T05:46:18.242Z,8.60
2022-10-11T05:48:48.073Z,9.50
2022-10-11T05:51:16.657Z,9.40
2022-10-11T05:53:45.341Z,10.10
2022-10-11T05:56:20.071Z,9.90
2022-10-11T05:58:49.050Z,10.00
2022-10-11T06:01:19.742Z,9.80
2022-10-11T06:03:48.259Z,9.80
2022-10-11T06:06:17.474Z,9.70
2022-10-11T06:08:47.019Z,9.00
2022-10-11T06:11:17.814Z,10.00
2022-10-11T06:13:46.212Z,9.70
2022-10-11T06:16:15.568Z,10.30
2022-10-11T06:18:43.894Z,9.90
2022-10-11T06:21:13.015Z,9.20
2022-10-11T06:23:41.626Z,9.00
2022-10-11T06:26:10.964Z,8.70
2022-10-11T06:28:39.374Z,8.10
2022-10-11T06:31:07.722Z,9.20
2022-10-11T06:33:36.419Z,8.00
2022-10-11T06:36:08.562Z,10.00
2022-10-11T06:38:41.039Z,10.40
2022-10-11T06:41:16.604Z,9.50
2022-10-11T06:43:45.266Z,10.10
2022-10-11T06:46:13.657Z,9.40
2022-10-11T06:48:43.770Z,9.40
2022-10-11T06:51:13.374Z,9.70
2022-10-11T06:53:41.785Z,9.10
2022-10-11T06:56:12.574Z,8.90
2022-10-11T06:58:41.298Z,8.90
2022-10-11T07:01:12.780Z,8.60
2022-10-11T07:03:41.634Z,9.60
2022-10-11T07:06:13.090Z,9.60
2022-10-11T07:08:42.321Z,9.50
2022-10-11T07:11:12.633Z,9.90
2022-10-11T07:13:41.747Z,9.70
2022-10-11T07:16:12.513Z,8.90
2022-10-11T07:18:41.057Z,6.40
2022-10-11T07:21:12.439Z,7.90
2022-10-11T07:23:41.364Z,10.40
2022-10-11T07:26:10.862Z,7.40
2022-10-11T07:28:39.816Z,8.50
2022-10-11T07:31:10.387Z,10.30
2022-10-11T07:33:38.758Z,10.70
2022-10-11T07:36:09.852Z,11.80
2022-10-11T07:38:40.848Z,9.50
2022-10-11T07:41:09.566Z,10.40
2022-10-11T07:43:38.743Z,9.00
2022-10-11T07:46:07.811Z,9.30
2022-10-11T07:48:37.663Z,9.90
2022-10-11T07:51:09.497Z,10.10
2022-10-11T07:53:42.304Z,6.60
2022-10-11T07:56:13.489Z,9.70
2022-10-11T07:58:42.438Z,8.60
2022-10-11T08:01:13.846Z,9.50
2022-10-11T08:03:42.160Z,8.00
2022-10-11T08:06:15.508Z,9.20
2022-10-11T08:08:44.444Z,7.50
2022-10-11T08:11:21.690Z,8.00
2022-10-11T08:13:51.219Z,8.80
2022-10-11T08:16:20.868Z,9.90
2022-10-11T08:18:49.332Z,8.90
2022-10-11T08:21:18.621Z,8.50
2022-10-11T08:23:47.044Z,7.70
2022-10-11T08:26:15.533Z,7.70
2022-10-11T08:28:43.907Z,7.70
2022-10-11T08:31:14.761Z,8.30
2022-10-11T08:33:43.595Z,7.50
2022-10-11T08:36:12.902Z,8.40
2022-10-11T08:38:41.784Z,8.30
2022-10-11T08:41:27.511Z,9.70
2022-10-11T08:44:06.287Z,6.90
2022-10-11T08:46:38.481Z,7.10
2022-10-11T08:49:09.208Z,8.00
2022-10-11T08:51:42.954Z,5.50
2022-10-11T08:54:17.776Z,7.90
2022-10-11T08:56:46.928Z,8.30
2022-10-11T08:59:27.221Z,9.50
2022-10-11T09:02:03.090Z,9.60
2022-10-11T09:04:31.835Z,9.90
2022-10-11T09:07:07.107Z,8.90
2022-10-11T09:09:55.679Z,8.40
2022-10-11T09:12:40.793Z,8.60
2022-10-11T09:15:20.363Z,8.80
2022-10-11T09:18:04.177Z,9.20
2022-10-11T09:20:43.841Z,9.40
2022-10-11T09:23:23.177Z,9.20
2022-10-11T09:25:58.917Z,7.60
2022-10-11T09:28:46.796Z,6.50
2022-10-11T09:31:16.451Z,6.10
2022-10-11T09:33:48.133Z,6.30
2022-10-11T09:36:23.878Z,5.80
2022-10-11T09:39:04.237Z,5.10
2022-10-11T09:41:41.527Z,6.30
2022-10-11T09:44:19.146Z,6.10
2022-10-11T09:46:49.248Z,5.10
2022-10-11T09:49:21.412Z,5.10
2022-10-11T09:51:54.180Z,4.70
2022-10-11T09:54:38.070Z,4.40
2022-10-11T09:57:17.183Z,4.00
2022-10-11T09:59:59.241Z,4.50
2022-10-11T10:02:29.179Z,4.10
2022-10-11T10:05:16.730Z,5.10
2022-10-11T10:08:04.525Z,4.60
2022-10-11T10:10:38.551Z,4.70
2022-10-11T10:13:20.563Z,5.60
2022-10-11T10:15:51.504Z,4.40
2022-10-11T10:18:23.856Z,3.70
2022-10-11T10:20:54.522Z,3.90
2022-10-11T10:23:26.245Z,4.20
2022-10-11T10:26:12.152Z,4.00
2022-10-11T10:28:56.457Z,3.80
2022-10-11T10:31:32.834Z,3.80
2022-10-11T10:34:16.395Z,3.40
2022-10-11T10:36:51.903Z,2.60
2022-10-11T10:39:29.628Z,2.50
2022-10-11T10:42:01.050Z,2.50
2022-10-11T10:44:30.365Z,2.40
2022-10-11T10:47:09.242Z,2.70
2022-10-11T10:49:59.581Z,2.60
2022-10-11T10:52:46.124Z,2.90
2022-10-11T10:55:23.249Z,2.40
2022-10-11T10:58:09.268Z,2.00
2022-10-11T11:00:46.063Z,1.80
2022-10-11T11:03:23.415Z,1.80
2022-10-11T11:06:01.610Z,2.00
2022-10-11T11:08:47.172Z,1.90
2022-10-11T11:11:31.574Z,1.70
2022-10-11T11:14:14.531Z,1.70
2022-10-11T11:16:49.811Z,2.10
2022-10-11T11:19:37.301Z,1.70
2022-10-11T11:22:11.015Z,1.60
2022-10-11T11:24:52.280Z,1.80
2022-10-11T11:27:37.864Z,1.50
2022-10-11T11:30:11.093Z,1.70
2022-10-11T11:32:48.349Z,1.40
2022-10-11T11:35:24.260Z,1.40
2022-10-11T11:38:02.525Z,1.40
2022-10-11T11:40:37.855Z,1.70
2022-10-11T11:43:15.268Z,1.60
2022-10-11T11:45:49.689Z,1.30
2022-10-11T11:48:20.194Z,1.40
2022-10-11T11:50:55.477Z,1.30
2022-10-11T11:53:34.774Z,1.70
2022-10-11T11:56:08.709Z,1.00
2022-10-11T11:58:45.584Z,1.60
2022-10-11T12:01:28.860Z,1.60
2022-10-11T12:04:10.890Z,1.80
2022-10-11T12:06:52.384Z,1.40
2022-10-11T12:09:26.889Z,1.30
2022-10-11T12:11:58.440Z,1.40
2022-10-11T12:14:35.161Z,1.30
2022-10-11T12:17:16.716Z,1.10
2022-10-11T12:20:04.489Z,1.60
2022-10-11T12:23:00.139Z,1.10
2022-10-11T12:25:43.815Z,0.80
2022-10-11T12:28:48.675Z,1.40
2022-10-11T12:31:22.758Z,1.30
2022-10-11T12:34:02.604Z,1.50
2022-10-11T12:36:38.056Z,1.10
2022-10-11T12:39:50.668Z,1.30
2022-10-11T12:42:27.243Z,1.00
2022-10-11T12:45:33.216Z,1.20
2022-10-11T12:48:25.594Z,1.50
2022-10-11T12:51:14.543Z,1.20
2022-10-11T12:54:25.585Z,1.00
2022-10-11T12:57:09.661Z,1.00
2022-10-11T12:59:44.313Z,1.20
2022-10-11T13:02:28.744Z,1.10
2022-10-11T13:05:08.696Z,0.90
2022-10-11T13:07:40.777Z,0.80
2022-10-11T13:10:14.585Z,1.00
2022-10-11T13:12:46.236Z,1.20
2022-10-11T13:15:18.817Z,1.00
2022-10-11T13:17:50.149Z,0.90
2022-10-11T13:20:24.124Z,0.90
2022-10-11T13:22:55.169Z,1.30
2022-10-11T13:25:26.040Z,1.40
2022-10-11T13:27:57.671Z,1.10
2022-10-11T13:30:30.305Z,1.30
2022-10-11T13:33:00.767Z,1.20
2022-10-11T13:35:34.305Z,0.90
2022-10-11T13:38:08.242Z,1.50
2022-10-11T13:40:38.635Z,1.60
2022-10-11T13:43:07.811Z,1.60
2022-10-11T13:45:38.674Z,1.90
2022-10-11T13:48:14.935Z,1.80
2022-10-11T13:50:50.560Z,1.70
2022-10-11T13:53:24.571Z,1.30
2022-10-11T13:55:56.689Z,1.70
2022-10-11T13:58:30.745Z,1.30
2022-10-11T14:01:01.556Z,1.60
2022-10-11T14:03:40.284Z,1.50
2022-10-11T14:06:09.219Z,1.70
2022-10-11T14:08:43.077Z,1.90
2022-10-11T14:11:13.742Z,1.20
2022-10-11T14:13:45.608Z,1.40
2022-10-11T14:16:31.415Z,1.30
2022-10-11T14:19:10.871Z,1.30
2022-10-11T14:21:51.214Z,0.90
2022-10-11T14:24:20.787Z,1.50
2022-10-11T14:26:51.179Z,1.40
2022-10-11T14:29:23.696Z,1.30
2022-10-11T14:31:55.470Z,1.20
2022-10-11T14:34:25.678Z,2.00
2022-10-11T14:36:54.352Z,2.20
2022-10-11T14:39:24.169Z,1.70
2022-10-11T14:41:53.708Z,1.60
2022-10-11T14:44:23.850Z,1.30
2022-10-11T14:46:54.544Z,2.10
2022-10-11T14:49:25.512Z,1.60
2022-10-11T14:51:56.167Z,1.60
2022-10-11T14:54:26.944Z,1.40
2022-10-11T14:56:57.718Z,1.30
2022-10-11T14:59:31.861Z,1.10
2022-10-11T15:02:00.719Z,1.50
2022-10-11T15:04:30.817Z,1.40
2022-10-11T15:07:00.030Z,1.60
2022-10-11T15:09:31.879Z,1.50
2022-10-11T15:12:00.302Z,1.50
2022-10-11T15:14:28.678Z,1.80
2022-10-11T15:16:58.802Z,1.30
2022-10-11T15:19:27.121Z,1.90
2022-10-11T15:21:55.648Z,1.90
2022-10-11T15:24:24.069Z,2.10
2022-10-11T15:26:52.474Z,1.80
2022-10-11T15:29:23.529Z,1.30
2022-10-11T15:31:51.916Z,1.80
2022-10-11T15:34:20.806Z,1.80
2022-10-11T15:36:49.614Z,1.70
2022-10-11T15:39:26.097Z,1.90
2022-10-11T15:41:54.598Z,2.30
2022-10-11T15:44:23.503Z,2.10
2022-10-11T15:46:52.500Z,2.40
2022-10-11T15:49:20.914Z,1.00
2022-10-11T15:51:50.226Z,2.10
2022-10-11T15:54:18.552Z,2.10
2022-10-11T15:56:47.311Z,2.00
2022-10-11T15:59:16.041Z,2.00
2022-10-11T16:01:44.529Z,2.40
2022-10-11T16:04:13.106Z,2.00
2022-10-11T16:06:41.594Z,1.90
2022-10-11T16:09:10.516Z,2.10
2022-10-11T16:11:39.201Z,2.20
2022-10-11T16:14:07.572Z,1.80
2022-10-11T16:16:36.518Z,2.00
2022-10-11T16:19:04.947Z,2.40
2022-10-11T16:21:33.187Z,2.10
2022-10-11T16:24:01.562Z,2.90
2022-10-11T16:26:32.087Z,2.80
2022-10-11T16:29:00.599Z,7.90
2022-10-11T16:31:31.767Z,8.00
2022-10-11T16:34:00.222Z,5.90
2022-10-11T16:36:31.553Z,6.20
2022-10-11T16:39:02.694Z,5.90
2022-10-11T16:41:33.566Z,5.90
2022-10-11T16:44:02.632Z,4.50
2022-10-11T16:46:33.093Z,4.00
2022-10-11T16:49:01.486Z,3.60
2022-10-11T16:51:31.030Z,3.90
2022-10-11T16:54:00.650Z,3.50
2022-10-11T16:56:30.859Z,4.40
2022-10-11T16:58:59.197Z,3.90
2022-10-11T17:01:27.527Z,4.30
2022-10-11T17:03:57.579Z,3.90
2022-10-11T17:06:26.449Z,3.10
2022-10-11T17:08:55.272Z,3.80
2022-10-11T17:11:24.424Z,3.90
2022-10-11T17:13:53.639Z,3.70
2022-10-11T17:16:22.898Z,4.40
2022-10-11T17:18:51.314Z,6.30
2022-10-11T17:21:21.366Z,8.80
2022-10-11T17:23:50.196Z,14.10
2022-10-11T17:26:24.242Z,19.00
2022-10-11T17:28:53.292Z,17.40
2022-10-11T17:31:22.014Z,13.70
2022-10-11T17:33:50.678Z,11.40
2022-10-11T17:36:22.836Z,12.20
2022-10-11T17:38:52.070Z,8.70
2022-10-11T17:41:21.209Z,9.10
2022-10-11T17:43:50.364Z,8.00
2022-10-11T17:46:22.071Z,6.70
2022-10-11T17:48:54.368Z,6.50
2022-10-11T17:51:23.284Z,6.40
2022-10-11T17:53:52.285Z,5.50
2022-10-11T17:56:28.182Z,5.50
2022-10-11T17:58:59.726Z,5.10
2022-10-11T18:01:32.728Z,5.80
2022-10-11T18:04:04.448Z,5.20
2022-10-11T18:06:38.987Z,5.10
2022-10-11T18:09:07.922Z,5.90
2022-10-11T18:11:36.655Z,5.70
2022-10-11T18:14:04.903Z,5.40
2022-10-11T18:16:34.614Z,5.80
2022-10-11T18:19:05.949Z,6.00
2022-10-11T18:21:37.268Z,6.00
2022-10-11T18:24:10.194Z,8.00
2022-10-11T18:26:39.193Z,8.60
2022-10-11T18:29:07.475Z,8.00
2022-10-11T18:31:36.379Z,8.60
2022-10-11T18:34:07.786Z,8.00
2022-10-11T18:36:36.419Z,7.70
2022-10-11T18:39:07.498Z,7.90
2022-10-11T18:41:37.820Z,7.90
2022-10-11T18:44:08.666Z,8.90
2022-10-11T18:46:40.070Z,8.40
2022-10-11T18:49:08.851Z,8.00
2022-10-11T18:51:39.081Z,10.00
2022-10-11T18:54:10.090Z,9.80
2022-10-11T18:56:38.429Z,10.80
2022-10-11T18:59:07.495Z,11.60
2022-10-11T19:01:38.750Z,10.80
2022-10-11T19:04:10.081Z,11.20
2022-10-11T19:06:40.655Z,11.80
2022-10-11T19:09:10.943Z,11.10
2022-10-11T19:11:39.932Z,12.10
2022-10-11T19:14:10.870Z,12.90
2022-10-11T19:16:42.330Z,11.20
2022-10-11T19:19:12.036Z,11.70
2022-10-11T19:21:41.684Z,11.60
2022-10-11T19:24:10.145Z,12.20
2022-10-11T19:26:40.655Z,11.80
2022-10-11T19:29:11.323Z,10.80
2022-10-11T19:31:43.980Z,12.60
2022-10-11T19:34:12.967Z,12.70
2022-10-11T19:36:42.258Z,11.30
2022-10-11T19:39:12.943Z,12.30
2022-10-11T19:41:42.421Z,11.70
2022-10-11T19:44:11.323Z,13.60
2022-10-11T19:46:55.399Z,13.00
2022-10-11T19:49:25.443Z,11.50
2022-10-11T19:51:55.643Z,11.90
2022-10-11T19:54:24.747Z,12.40
2022-10-11T19:56:53.015Z,11.90
2022-10-11T19:59:21.533Z,12.50
2022-10-11T20:01:53.107Z,11.90
2022-10-11T20:09:38.903Z,13.10
2022-10-11T20:12:08.308Z,13.70
2022-10-11T20:14:37.055Z,13.10
2022-10-11T20:17:05.918Z,14.30
2022-10-11T20:19:34.424Z,13.70
2022-10-11T20:22:02.962Z,13.40
2022-10-11T20:24:34.076Z,13.30
2022-10-11T20:27:04.061Z,14.40
2022-10-11T20:29:32.694Z,14.80
2022-10-11T20:32:00.899Z,14.60
2022-10-11T20:34:30.718Z,15.20
2022-10-11T20:36:59.616Z,13.80
2022-10-11T20:39:28.067Z,15.40
2022-10-11T20:41:56.656Z,15.10
2022-10-11T20:44:25.668Z,15.10
2022-10-11T20:46:54.143Z,14.00
2022-10-11T20:49:22.520Z,13.80
2022-10-11T20:51:50.750Z,14.80
2022-10-11T20:54:19.168Z,14.70
2022-10-11T20:56:47.633Z,14.50
2022-10-11T20:59:15.816Z,13.40
2022-10-11T21:01:46.773Z,12.20
2022-10-11T21:04:19.256Z,14.80
2022-10-11T21:06:48.533Z,13.80
2022-10-11T21:09:18.569Z,14.00
2022-10-11T21:11:47.226Z,13.50
2022-10-11T21:14:15.748Z,13.40
2022-10-11T21:16:44.024Z,14.80
2022-10-11T21:19:15.080Z,14.20
2022-10-11T21:21:44.071Z,13.30
2022-10-11T21:24:12.417Z,13.70
2022-10-11T21:26:40.584Z,13.20
2022-10-11T21:29:08.862Z,13.70
2022-10-11T21:31:37.634Z,13.60
2022-10-11T21:34:06.822Z,13.80
2022-10-11T21:36:35.221Z,14.10
2022-10-11T21:39:03.655Z,13.50
2022-10-11T21:41:33.626Z,13.30
2022-10-11T21:44:01.960Z,12.40
2022-10-11T21:47:01.136Z,13.60
2022-10-11T21:49:22.167Z,13.60
2022-10-11T21:51:51.158Z,13.00
2022-10-11T21:54:19.791Z,12.40
2022-10-11T21:56:48.230Z,12.50
2022-10-11T21:59:16.880Z,13.10
2022-10-11T22:01:45.169Z,12.00
2022-10-11T22:04:13.666Z,12.00
2022-10-11T22:06:44.078Z,11.90
2022-10-11T22:09:12.526Z,12.30
2022-10-11T22:11:41.080Z,11.60
2022-10-11T22:14:09.476Z,12.40
2022-10-11T22:16:37.974Z,12.10
2022-10-11T22:19:06.544Z,12.30
2022-10-11T22:21:34.957Z,11.70
2022-10-11T22:24:03.912Z,11.70
2022-10-11T22:26:35.790Z,11.60
2022-10-11T22:29:04.304Z,11.20
2022-10-11T22:31:34.314Z,11.30
2022-10-11T22:34:02.975Z,11.80
2022-10-11T22:36:33.060Z,11.40
2022-10-11T22:39:07.127Z,10.90
2022-10-11T22:41:36.471Z,11.50
2022-10-11T22:44:05.983Z,11.20
2022-10-11T22:46:34.703Z,11.20
2022-10-11T22:49:03.693Z,10.40
2022-10-11T22:51:32.813Z,10.10
2022-10-11T22:54:01.448Z,9.90
2022-10-11T22:56:32.806Z,10.50
2022-10-11T22:59:01.412Z,11.50
2022-10-11T23:01:30.024Z,10.10
2022-10-11T23:03:59.463Z,11.20
2022-10-11T23:06:27.952Z,10.40
2022-10-11T23:08:56.713Z,10.10
2022-10-11T23:11:25.371Z,10.20
2022-10-11T23:13:54.362Z,10.60
2022-10-11T23:16:22.769Z,10.10
2022-10-11T23:18:53.566Z,10.60
2022-10-11T23:21:22.458Z,9.70
2022-10-11T23:23:54.899Z,9.90
2022-10-11T23:26:23.816Z,9.90
2022-10-11T23:28:55.270Z,10.80
2022-10-11T23:31:23.727Z,9.90
2022-10-11T23:33:53.725Z,9.70
2022-10-11T23:36:24.950Z,10.00
2022-10-11T23:38:55.232Z,9.60
2022-10-11T23:41:26.808Z,8.50
2022-10-11T23:43:56.594Z,9.90
2022-10-11T23:46:25.444Z,10.20
2022-10-11T23:48:54.008Z,9.20
2022-10-11T23:51:23.094Z,8.40
2022-10-11T23:53:51.858Z,9.30
2022-10-11T23:56:20.681Z,9.90
2022-10-11T23:58:54.855Z,9.20
